<<    November 2012    >>
Datum    Temp.       Tempmin      Tempmax    Taup.       Taup.min      Taup.max    Feuchte    Feuchtemin    Feuchtemax    Druck    Druckmin    Druckmax    Regen    Wind    Benmax  
  01.11.2012  7,4    4,2    23:15    11,1    13:04  3,9    1,7    00:17    7,6    14:53  79,1    61    11:21    98    23:59  988,9    985    14:03    994    00:00  1,8  2,9  28,4  
  02.11.2012  7,8    4,3    00:00    12,0    12:44  3,9    1,4    11:42    6,5    01:38  77,8    50    12:24    98    00:00  998,1    992    00:00    1002    23:49  1,9  3,0  17,6  
  03.11.2012  6,4    3,9    03:03    10,0    13:51  5,4    3,0    19:56    9,7    13:51  93,3    76    16:33    98    23:59  1002,0    997    13:17    1006    23:59  2,7  1,9  20,9  
  04.11.2012  6,6    2,2    07:27    11,1    15:18  5,6    1,9    07:27    9,2    12:11  93,5    78    15:08    98    00:00  1001,5    995    15:18    1007    00:47  1,2  1,9  22,0  
  05.11.2012  7,3    3,1    21:34    10,8    13:15  5,3    2,8    21:34    7,0    09:43  87,2    68    13:37    98    18:38  1003,3    999    00:32    1011    23:59  0,9  2,1  15,8  
  06.11.2012  6,6    2,4    07:43    10,4    13:06  4,5    2,1    07:43    8,2    11:28  87,2    69    13:46    98    00:00  1017,3    1011    00:00    1020    23:59  0,9  2,5  15,5  
  07.11.2012  9,3    7,4    00:00    11,1    12:51  8,3    6,0    00:00    10,8    12:51  93,2    82    23:59    98    01:51  1023,5    1019    02:32    1026    14:18  1,9  3,2  21,2  
  08.11.2012  9,9    8,9    23:36    11,3    14:00  5,8    4,9    03:24    7,0    00:00  75,9    69    12:19    84    23:36  1020,2    1017    14:46    1025    00:00  0,0  2,5  16,6  
  09.11.2012  9,6    8,5    23:01    12,3    12:51  5,3    2,3    13:21    7,2    04:45  75,4    52    12:52    90    04:45  1015,4    1009    20:32    1019    00:00  0,0  2,2  15,1  
  10.11.2012  10,4    8,4    03:52    13,4    14:12  9,0    4,9    00:00    11,0    16:57  91,0    74    00:46    98    16:57  1003,1    1000    15:47    1009    00:00  3,9  2,7  14,0  
  11.11.2012  8,9    4,7    23:50    12,6    14:01  7,2    3,9    19:34    11,3    01:17  89,9    63    14:34    98    00:00  1011,7    1001    00:01    1022    23:59  0,9  1,2  12,6  
  12.11.2012  5,9    3,1    21:56    11,1    12:43  4,0    2,1    21:47    7,1    10:18  88,2    66    15:47    98    01:01  1025,9    1022    00:00    1030    23:59  0,0  0,8  8,6  
  13.11.2012  6,5    2,8    01:08    9,1    15:12  3,7    1,7    00:48    5,6    17:39  82,7    72    22:25    96    02:12  1031,4    1029    01:45    1033    10:45  0,0  1,7  9,7  
  14.11.2012  5,5    2,7    07:39    9,7    14:33  2,3    1,5    06:10    3,5    19:46  80,5    58    13:39    93    06:38  1029,6    1027    14:17    1032    00:00  0,0  2,3  16,2  
  15.11.2012  5,5    4,7    23:59    6,1    14:08  2,1    1,2    23:59    3,0    00:51  79,0    74    13:49    84    04:48  1024,9    1023    15:00    1027    00:00  0,0  1,7  9,7  
  16.11.2012  4,6    3,1    23:01    6,5    13:05  1,0    0,4    18:30    1,6    13:05  78,1    67    13:31    89    23:59  1019,8    1016    23:59    1023    00:00  0,0  2,5  10,1  
  17.11.2012  6,3    3,0    03:20    9,8    13:41  4,4    1,6    00:00    6,9    23:32  87,8    75    12:49    97    08:26  1013,2    1011    12:29    1017    00:45  0,0  3,4  19,4  
  18.11.2012  8,5    7,2    23:48    9,1    11:48  7,8    6,9    00:00    8,8    11:48  95,9    90    00:00    98    23:59  1014,0    1011    03:29    1019    20:14  0,9  0,9  11,9  
  19.11.2012  8,5    5,0    03:02    12,4    14:59  7,6    4,7    03:02    10,1    13:00  93,9    79    15:04    98    00:00  1017,5    1015    13:44    1019    00:00  0,0  2,7  17,3  
  20.11.2012  6,7    4,6    23:17    9,8    13:18  5,5    3,6    23:17    7,2    00:00  92,5    78    13:01    98    00:00  1018,8    1018    00:00    1021    10:14  0,0  4,4  16,9  
  21.11.2012  6,1    4,0    05:47    9,8    23:59  3,6    2,1    12:40    6,7    23:03  84,5    70    14:15    95    00:18  1016,3    1013    13:43    1020    23:44  0,0  5,5  24,5  
  22.11.2012  7,5    3,6    06:04    11,8    13:11  4,7    3,0    06:04    7,9    10:48  83,3    58    14:18    98    06:29  1022,3    1019    00:28    1025    08:58  0,0  2,6  12,2  
  23.11.2012  7,8    5,8    00:00    9,3    12:18  6,7    5,4    00:00    8,1    18:11  93,2    79    13:04    98    23:59  1018,0    1016    13:58    1020    00:00  6,7  2,9  17,3  
  24.11.2012  9,5    8,2    00:00    11,2    13:53  9,1    7,9    00:00    10,9    13:53  97,7    93    23:03    98    00:00  1016,6    1010    23:43    1019    00:00  0,9  0,9  10,4  
  25.11.2012  10,7    6,1    23:52    13,7    06:06  4,8    0,7    13:26    9,3    05:23  67,7    45    13:15    93    00:00  1011,3    1006    04:27    1015    17:27  0,0  4,6  24,8  
  26.11.2012  7,5    4,8    04:23    9,4    18:11  6,5    2,8    04:23    9,1    18:11  93,1    81    00:00    98    23:59  1007,2    1003    16:27    1015    00:45  4,8  3,1  14,0  
  27.11.2012  8,3    5,6    23:58    10,2    14:36  5,8    4,1    23:59    7,7    00:00  84,8    69    14:53    98    00:00  1005,5    1003    01:13    1008    21:57  0,0  2,1  10,1  
  28.11.2012  5,6    4,0    02:26    7,1    14:01  4,9    3,5    22:04    6,8    14:01  95,6    87    21:53    98    02:47  1007,0    1006    15:27    1008    08:12  0,0  2,5  12,2  
  29.11.2012  4,4    1,7    22:44    5,9    02:05  2,0    -0,4    08:00    4,9    01:12  84,6    70    05:42    94    00:30  1006,6    1004    05:43    1010    23:26  0,0  5,2  20,2  
  30.11.2012  2,4    -1,4    23:44    4,6    11:45  1,0    -1,9    20:40    3,4    10:00  91,0    76    14:42    98    06:50  1012,0    1009    00:26    1016    22:26  0,0  1,5  9,4  
 
  Gesamt  7,3  -1,4            13,7            5,1  -1,9            11,3            86,6  45            98            1013,4  985            1033            29,3  2,6  28,4  
 
  Mittelwert  7,3  4,6            10,1            5,1  2,9            7,5            86,6  71,0            95,8            1013,4  1009,5            1017,3            1,0  2,6  15,8  
  Minimum  2,4  -1,4            4,6            1,0  -1,9            1,6            67,7  45,0            84,0            988,9  985,0            994,0            0,0  0,8  8,6  
  Maximum  10,7  8,9            13,7            9,1  7,9            11,3            97,7  93,0            98,0            1031,4  1029,0            1033,0            6,7  5,5  28,4  

  Heie Tage    Tmax >=30C     0  
  Sommertage    Tmax >=25C     0  
  Warme Tage    Tmax >=20C     0  
  Kalte Tage    Tmax  <10C     13  
  Frosttage    Tmin  <0C     1  
  Eistage    Tmax  <0C     0  
  Regentage > 0 mm    13  
  Regentage > 2 mm    4  
  Regentage > 10 mm    0  
  Regentage > 20 mm    0